createdAt,value
2022-12-15T00:00:00.505Z,-11.7
2022-12-15T00:04:00.543Z,-11.7
2022-12-15T00:08:00.515Z,-11.7
2022-12-15T00:12:00.501Z,-11.7
2022-12-15T00:16:00.599Z,-11.8
2022-12-15T00:20:00.493Z,-11.8
2022-12-15T00:24:00.496Z,-11.8
2022-12-15T00:28:00.462Z,-11.8
2022-12-15T00:32:00.633Z,-11.8
2022-12-15T00:36:00.479Z,-11.8
2022-12-15T00:40:00.505Z,-12.0
2022-12-15T00:44:00.509Z,-11.9
2022-12-15T00:48:00.487Z,-11.8
2022-12-15T00:52:00.510Z,-11.9
2022-12-15T00:56:00.478Z,-11.8
2022-12-15T01:00:00.503Z,-11.8
2022-12-15T01:04:00.616Z,-11.8
2022-12-15T01:08:00.499Z,-11.9
2022-12-15T01:12:00.504Z,-11.8
2022-12-15T01:16:00.544Z,-11.9
2022-12-15T01:20:00.505Z,-12.0
2022-12-15T01:24:00.482Z,-12.1
2022-12-15T01:28:00.514Z,-12.1
2022-12-15T01:32:00.568Z,-12.0
2022-12-15T01:36:00.484Z,-11.9
2022-12-15T01:40:00.499Z,-11.8
2022-12-15T01:44:00.518Z,-11.8
2022-12-15T01:48:00.484Z,-11.8
2022-12-15T01:52:00.480Z,-11.8
2022-12-15T01:56:00.475Z,-11.8
2022-12-15T02:00:00.512Z,-11.9
2022-12-15T02:04:00.506Z,-12.0
2022-12-15T02:08:00.520Z,-12.0
2022-12-15T02:12:00.518Z,-12.0
2022-12-15T02:16:00.561Z,-12.0
2022-12-15T02:20:00.490Z,-12.1
2022-12-15T02:24:00.499Z,-12.2
2022-12-15T02:28:00.488Z,-12.1
2022-12-15T02:32:00.579Z,-12.2
2022-12-15T02:36:00.506Z,-12.2
2022-12-15T02:40:00.500Z,-12.2
2022-12-15T02:44:00.526Z,-12.2
2022-12-15T02:48:00.483Z,-12.3
2022-12-15T02:52:00.469Z,-12.3
2022-12-15T02:56:00.485Z,-12.3
2022-12-15T03:00:00.476Z,-12.3
2022-12-15T03:04:00.498Z,-12.3
2022-12-15T03:08:00.474Z,-12.3
2022-12-15T03:12:00.533Z,-12.4
2022-12-15T03:16:00.541Z,-12.4
2022-12-15T03:20:00.491Z,-12.4
2022-12-15T03:24:00.470Z,-12.4
2022-12-15T03:28:00.490Z,-12.6
2022-12-15T03:32:00.561Z,-12.6
2022-12-15T03:36:00.483Z,-12.7
2022-12-15T03:40:00.483Z,-12.7
2022-12-15T03:44:00.489Z,-12.4
2022-12-15T03:48:00.503Z,-12.5
2022-12-15T03:52:00.471Z,-12.6
2022-12-15T03:56:00.713Z,-12.7
2022-12-15T04:00:00.511Z,-12.7
2022-12-15T04:04:01.591Z,-12.6
2022-12-15T04:08:00.493Z,-12.5
2022-12-15T04:12:00.512Z,-12.6
2022-12-15T04:16:00.502Z,-12.7
2022-12-15T04:20:00.509Z,-12.6
2022-12-15T04:24:00.497Z,-12.6
2022-12-15T04:28:01.863Z,-12.5
2022-12-15T04:32:00.728Z,-12.2
2022-12-15T04:36:00.523Z,-12.2
2022-12-15T04:40:00.515Z,-12.2
2022-12-15T04:44:00.502Z,-12.2
2022-12-15T04:48:00.514Z,-12.3
2022-12-15T04:52:00.506Z,-12.5
2022-12-15T04:56:00.495Z,-12.4
2022-12-15T05:00:00.531Z,-12.4
2022-12-15T05:04:00.598Z,-12.4
2022-12-15T05:08:00.489Z,-12.3
2022-12-15T05:12:00.474Z,-12.2
2022-12-15T05:16:00.547Z,-11.9
2022-12-15T05:20:00.469Z,-11.7
2022-12-15T05:24:00.485Z,-11.3
2022-12-15T05:28:00.489Z,-10.9
2022-12-15T05:32:00.505Z,-10.4
2022-12-15T05:36:00.507Z,-10.2
2022-12-15T05:40:00.490Z,-10.0
2022-12-15T05:44:00.506Z,-9.8
2022-12-15T05:48:00.499Z,-9.7
2022-12-15T05:52:00.500Z,-9.6
2022-12-15T05:56:00.491Z,-9.6
2022-12-15T06:00:00.502Z,-9.5
2022-12-15T06:04:00.534Z,-9.5
2022-12-15T06:08:00.473Z,-9.4
2022-12-15T06:12:00.513Z,-9.4
2022-12-15T06:16:00.523Z,-9.3
2022-12-15T06:20:00.489Z,-9.3
2022-12-15T06:24:00.519Z,-9.3
2022-12-15T06:28:01.972Z,-9.3
2022-12-15T06:32:00.497Z,-9.4
2022-12-15T06:36:00.483Z,-9.6
2022-12-15T06:40:00.490Z,-9.7
2022-12-15T06:44:00.520Z,-9.8
2022-12-15T06:48:01.753Z,-9.9
2022-12-15T06:52:00.517Z,-9.9
2022-12-15T06:56:00.515Z,-10.0
2022-12-15T07:00:00.511Z,-10.1
2022-12-15T07:04:00.725Z,-10.1
2022-12-15T07:08:00.506Z,-10.1
2022-12-15T07:12:00.501Z,-10.2
2022-12-15T07:16:00.559Z,-10.2
2022-12-15T07:20:00.510Z,-10.3
2022-12-15T07:24:01.762Z,-10.3
2022-12-15T07:28:00.535Z,-10.3
2022-12-15T07:32:00.552Z,-10.4
2022-12-15T07:36:00.513Z,-10.5
2022-12-15T07:40:00.495Z,-10.5
2022-12-15T07:44:00.499Z,-10.5
2022-12-15T07:48:00.497Z,-10.4
2022-12-15T07:52:00.495Z,-10.3
2022-12-15T07:56:07.385Z,-10.3
2022-12-15T08:00:00.565Z,-10.2
2022-12-15T08:04:00.568Z,-10.1
2022-12-15T08:08:00.531Z,-10.1
2022-12-15T08:12:00.520Z,-10.0
2022-12-15T08:16:00.580Z,-10.0
2022-12-15T08:20:04.743Z,-9.7
2022-12-15T08:24:00.514Z,-9.6
2022-12-15T08:28:00.517Z,-9.5
2022-12-15T08:32:00.578Z,-9.4
2022-12-15T08:36:00.505Z,-9.4
2022-12-15T08:40:00.512Z,-9.3
2022-12-15T08:44:00.484Z,-9.2
2022-12-15T08:48:00.493Z,-9.1
2022-12-15T08:52:00.741Z,-9.1
2022-12-15T08:56:00.499Z,-9.0
2022-12-15T09:00:00.803Z,-8.9
2022-12-15T09:04:00.570Z,-8.8
2022-12-15T09:08:06.212Z,-8.7
2022-12-15T09:12:00.510Z,-8.7
2022-12-15T09:16:11.564Z,-8.5
2022-12-15T09:20:00.493Z,-8.5
2022-12-15T09:24:00.842Z,-8.4
2022-12-15T09:28:00.515Z,-8.3
2022-12-15T09:32:00.520Z,-8.2
2022-12-15T09:36:00.494Z,-8.1
2022-12-15T09:40:00.492Z,-7.9
2022-12-15T09:44:00.501Z,-7.8
2022-12-15T09:48:00.485Z,-7.7
2022-12-15T09:52:01.070Z,-7.6
2022-12-15T09:56:00.562Z,-7.4
2022-12-15T10:00:00.530Z,-7.2
2022-12-15T10:04:00.664Z,-7.2
2022-12-15T10:08:00.496Z,-7.0
2022-12-15T10:12:00.520Z,-6.8
2022-12-15T10:16:00.628Z,-6.7
2022-12-15T10:20:00.511Z,-6.6
2022-12-15T10:24:00.541Z,-6.5
2022-12-15T10:28:00.513Z,-6.4
2022-12-15T10:32:00.497Z,-6.3
2022-12-15T10:36:00.507Z,-6.2
2022-12-15T10:40:00.493Z,-6.1
2022-12-15T10:44:00.496Z,-6.0
2022-12-15T10:48:00.505Z,-5.8
2022-12-15T10:52:00.491Z,-5.7
2022-12-15T10:56:00.502Z,-5.5
2022-12-15T11:00:00.514Z,-5.3
2022-12-15T11:04:00.807Z,-5.2
2022-12-15T11:08:00.499Z,-4.9
2022-12-15T11:12:00.508Z,-4.8
2022-12-15T11:16:00.556Z,-4.5
2022-12-15T11:20:03.057Z,-4.5
2022-12-15T11:24:00.487Z,-4.3
2022-12-15T11:28:00.517Z,-3.8
2022-12-15T11:32:06.734Z,-2.1
2022-12-15T11:36:00.553Z,-1.5
2022-12-15T11:40:00.520Z,-1.2
2022-12-15T11:48:00.504Z,-1.5
2022-12-15T11:52:00.483Z,-1.6
2022-12-15T11:56:00.512Z,-1.8
2022-12-15T12:00:00.524Z,-2.6
2022-12-15T12:04:00.510Z,-2.9
2022-12-15T12:08:00.500Z,-3.0
2022-12-15T12:12:00.525Z,-3.1
2022-12-15T12:16:00.503Z,-3.2
2022-12-15T12:20:00.508Z,-3.1
2022-12-15T12:24:00.539Z,-3.0
2022-12-15T12:28:00.500Z,-2.9
2022-12-15T12:32:04.436Z,-2.9
2022-12-15T12:36:00.556Z,-2.5
2022-12-15T12:40:00.499Z,-2.4
2022-12-15T12:44:00.546Z,-2.0
2022-12-15T12:48:00.553Z,-2.1
2022-12-15T12:52:00.511Z,-2.1
2022-12-15T12:56:00.521Z,-2.0
2022-12-15T13:00:00.525Z,-2.0
2022-12-15T13:04:00.495Z,-2.1
2022-12-15T13:08:00.506Z,-2.1
2022-12-15T13:12:03.158Z,-2.0
2022-12-15T13:16:00.496Z,-1.8
2022-12-15T13:20:00.515Z,-1.9
2022-12-15T13:24:00.525Z,-2.0
2022-12-15T13:28:00.473Z,-2.2
2022-12-15T13:32:00.540Z,-2.2
2022-12-15T13:36:00.504Z,-2.4
2022-12-15T13:40:00.507Z,-2.4
2022-12-15T13:44:00.498Z,-2.5
2022-12-15T13:48:00.505Z,-2.7
2022-12-15T13:52:00.513Z,-3.0
2022-12-15T13:56:00.498Z,-3.2
2022-12-15T14:00:00.538Z,-3.3
2022-12-15T14:04:00.514Z,-3.6
2022-12-15T14:08:00.508Z,-3.6
2022-12-15T14:12:00.505Z,-3.6
2022-12-15T14:16:00.611Z,-3.8
2022-12-15T14:20:00.553Z,-3.8
2022-12-15T14:28:00.491Z,-4.1
2022-12-15T14:32:00.661Z,-4.2
2022-12-15T14:36:00.502Z,-4.4
2022-12-15T14:40:00.483Z,-4.6
2022-12-15T14:44:36.632Z,-4.6
2022-12-15T14:48:30.949Z,-4.7
2022-12-15T14:52:00.484Z,-4.8
2022-12-15T14:56:00.504Z,-4.9
2022-12-15T15:00:00.526Z,-5.0
2022-12-15T15:03:04.785Z,-1.2
2022-12-15T15:04:00.527Z,-5.2
2022-12-15T15:08:00.490Z,-5.2
2022-12-15T15:12:00.487Z,-5.2
2022-12-15T15:16:00.513Z,-5.2
2022-12-15T15:20:00.517Z,-5.2
2022-12-15T15:24:00.525Z,-5.6
2022-12-15T15:28:00.500Z,-5.8
2022-12-15T15:32:00.529Z,-5.7
2022-12-15T15:36:00.510Z,-5.9
2022-12-15T15:40:00.507Z,-5.9
2022-12-15T15:44:00.520Z,-6.1
2022-12-15T15:48:00.513Z,-6.3
2022-12-15T15:52:00.501Z,-6.4
2022-12-15T15:56:00.536Z,-6.4
2022-12-15T16:00:00.521Z,-6.4
2022-12-15T16:04:00.552Z,-6.0
2022-12-15T16:08:00.508Z,-6.3
2022-12-15T16:12:00.534Z,-6.3
2022-12-15T16:16:00.566Z,-6.5
2022-12-15T16:20:00.538Z,-6.6
2022-12-15T16:24:00.517Z,-6.6
2022-12-15T16:28:00.493Z,-6.6
2022-12-15T16:32:00.497Z,-6.5
2022-12-15T16:36:00.515Z,-6.5
2022-12-15T16:40:00.515Z,-6.5
2022-12-15T16:44:00.495Z,-6.5
2022-12-15T16:48:00.615Z,-6.5
2022-12-15T16:52:00.493Z,-6.5
2022-12-15T16:56:00.499Z,-6.7
2022-12-15T17:00:00.517Z,-6.4
2022-12-15T17:04:00.577Z,-6.5
2022-12-15T17:08:00.506Z,-6.8
2022-12-15T17:12:00.483Z,-6.8
2022-12-15T17:16:00.636Z,-6.8
2022-12-15T17:20:30.073Z,-7.0
2022-12-15T17:24:00.482Z,-7.2
2022-12-15T17:28:00.511Z,-7.1
2022-12-15T17:32:00.560Z,-7.2
2022-12-15T17:36:00.520Z,-7.2
2022-12-15T17:40:00.499Z,-7.2
2022-12-15T17:44:32.305Z,-7.4
2022-12-15T17:48:00.488Z,-7.3
2022-12-15T17:52:00.490Z,-7.2
2022-12-15T17:56:00.481Z,-7.3
2022-12-15T18:00:00.580Z,-7.3
2022-12-15T18:04:00.512Z,-7.3
2022-12-15T18:08:00.505Z,-7.2
2022-12-15T18:12:00.476Z,-7.1
2022-12-15T18:16:00.554Z,-7.4
2022-12-15T18:20:00.547Z,-7.3
2022-12-15T18:24:00.506Z,-7.4
2022-12-15T18:28:00.486Z,-7.6
2022-12-15T18:32:00.634Z,-7.6
2022-12-15T18:36:00.479Z,-7.4
2022-12-15T18:40:04.558Z,-7.4
2022-12-15T18:44:00.500Z,-7.7
2022-12-15T18:48:00.470Z,-7.9
2022-12-15T18:52:00.515Z,-8.0
2022-12-15T18:56:00.484Z,-8.1
2022-12-15T19:00:00.479Z,-8.2
2022-12-15T19:04:00.466Z,-8.3
2022-12-15T19:08:00.743Z,-8.3
2022-12-15T19:12:00.502Z,-8.1
2022-12-15T19:16:00.552Z,-8.2
2022-12-15T19:20:00.490Z,-8.2
2022-12-15T19:24:00.502Z,-8.1
2022-12-15T19:28:00.553Z,-8.2
2022-12-15T19:32:00.579Z,-8.4
2022-12-15T19:36:00.484Z,-8.5
2022-12-15T19:40:00.493Z,-8.4
2022-12-15T19:44:00.491Z,-8.7
2022-12-15T19:48:00.489Z,-8.8
2022-12-15T19:52:00.500Z,-8.8
2022-12-15T19:56:00.479Z,-8.7
2022-12-15T20:00:00.499Z,-8.8
2022-12-15T20:04:00.479Z,-9.1
2022-12-15T20:08:00.489Z,-9.0
2022-12-15T20:12:00.555Z,-8.9
2022-12-15T20:16:00.493Z,-9.1
2022-12-15T20:20:00.476Z,-9.3
2022-12-15T20:24:00.473Z,-9.3
2022-12-15T20:28:00.470Z,-9.3
2022-12-15T20:32:00.537Z,-9.3
2022-12-15T20:36:00.478Z,-9.4
2022-12-15T20:40:00.506Z,-9.4
2022-12-15T20:44:00.472Z,-9.4
2022-12-15T20:48:00.483Z,-9.5
2022-12-15T20:52:00.482Z,-9.5
2022-12-15T20:56:00.529Z,-9.6
2022-12-15T21:00:00.510Z,-9.6
2022-12-15T21:04:00.501Z,-9.7
2022-12-15T21:08:00.509Z,-9.8
2022-12-15T21:12:05.775Z,-9.7
2022-12-15T21:16:00.581Z,-9.7
2022-12-15T21:20:00.494Z,-9.7
2022-12-15T21:24:00.496Z,-9.8
2022-12-15T21:28:00.497Z,-9.8
2022-12-15T21:32:00.517Z,-9.7
2022-12-15T21:36:00.529Z,-9.7
2022-12-15T21:40:00.498Z,-9.8
2022-12-15T21:44:00.501Z,-9.9
2022-12-15T21:48:00.489Z,-9.9
2022-12-15T21:52:00.780Z,-10.0
2022-12-15T21:56:00.485Z,-9.9
2022-12-15T22:00:00.476Z,-10.0
2022-12-15T22:04:00.490Z,-10.0
2022-12-15T22:08:00.478Z,-10.1
2022-12-15T22:12:00.470Z,-10.1
2022-12-15T22:16:00.838Z,-10.1
2022-12-15T22:20:00.507Z,-10.2
2022-12-15T22:24:00.498Z,-10.2
2022-12-15T22:28:00.466Z,-10.2
2022-12-15T22:32:00.472Z,-10.2
2022-12-15T22:36:00.492Z,-10.3
2022-12-15T22:40:00.464Z,-10.3
2022-12-15T22:44:00.479Z,-10.1
2022-12-15T22:48:00.480Z,-10.3
2022-12-15T22:52:00.485Z,-10.4
2022-12-15T22:56:00.458Z,-10.5
2022-12-15T23:00:00.717Z,-10.5
2022-12-15T23:04:00.492Z,-10.6
2022-12-15T23:08:00.520Z,-10.6
2022-12-15T23:12:00.477Z,-10.4
2022-12-15T23:16:00.592Z,-10.6
2022-12-15T23:20:00.498Z,-10.3
2022-12-15T23:24:00.513Z,-10.3
2022-12-15T23:28:00.501Z,-10.5
2022-12-15T23:32:00.526Z,-10.6
2022-12-15T23:36:00.491Z,-10.3
2022-12-15T23:40:00.479Z,-10.3
2022-12-15T23:44:00.523Z,-10.4
2022-12-15T23:48:00.470Z,-10.5
2022-12-15T23:52:00.474Z,-10.7
2022-12-15T23:56:00.515Z,-10.7
